Time;durP1;ratioP1;P1;durP2;ratioP2;P2;SDS_P1;SDS_P2;PMS_P1;PMS_P2;Temp;Humidity;BMP_temperature;BMP_pressure;BME280_temperature;BME280_humidity;BME280_pressure;Samples;Min_cycle;Max_cycle;Signal;HPM_P1;HPM_P2
2023/08/27 00:02:12;;;;;;;8.75;6.22;;;18.20;99.90;;;;;;5045294;28;20021;-76
2023/08/27 00:04:37;;;;;;;11.88;6.60;;;18.20;99.90;;;;;;5046671;28;20100;-76
2023/08/27 00:07:03;;;;;;;13.35;7.80;;;18.20;99.90;;;;;;5045871;28;20151;-75
2023/08/27 00:09:28;;;;;;;13.75;7.57;;;18.20;99.90;;;;;;5047700;28;20022;-76
2023/08/27 00:11:54;;;;;;;11.00;8.30;;;18.20;99.90;;;;;;5062443;28;20028;-77
2023/08/27 00:14:19;;;;;;;8.63;7.32;;;18.20;99.90;;;;;;5054638;28;20029;-77
2023/08/27 00:16:45;;;;;;;9.10;6.50;;;18.30;99.90;;;;;;5045816;28;20075;-74
2023/08/27 00:19:11;;;;;;;7.03;6.22;;;18.30;99.90;;;;;;5044887;28;20021;-75
2023/08/27 00:21:36;;;;;;;8.23;5.15;;;18.20;99.90;;;;;;5044417;28;20450;-77
2023/08/27 00:24:04;;;;;;;7.95;5.80;;;18.20;99.90;;;;;;5046284;28;20366;-77
2023/08/27 00:26:29;;;;;;;6.35;5.30;;;18.20;99.90;;;;;;5044884;28;20033;-77
2023/08/27 00:28:55;;;;;;;8.13;4.88;;;18.20;99.90;;;;;;5044497;28;20104;-74
2023/08/27 00:31:21;;;;;;;5.63;4.65;;;18.20;99.90;;;;;;5046153;28;20037;-77
2023/08/27 00:33:47;;;;;;;7.60;5.20;;;18.20;99.90;;;;;;5041668;28;20060;-74
2023/08/27 00:36:12;;;;;;;7.10;5.10;;;18.10;99.90;;;;;;5044068;28;20136;-77
2023/08/27 00:38:38;;;;;;;7.70;6.13;;;18.10;99.90;;;;;;5034176;28;20071;-77
2023/08/27 00:41:03;;;;;;;6.03;5.35;;;18.20;99.90;;;;;;5031957;28;20481;-74
2023/08/27 00:43:30;;;;;;;6.47;5.38;;;18.10;99.90;;;;;;5031021;28;20032;-74
2023/08/27 00:45:56;;;;;;;10.25;7.70;;;18.20;99.90;;;;;;5032074;28;20435;-74
2023/08/27 00:48:21;;;;;;;11.07;9.18;;;18.10;99.90;;;;;;5032231;28;20034;-75
2023/08/27 00:50:48;;;;;;;12.60;10.27;;;18.20;99.90;;;;;;5030664;28;20022;-74
2023/08/27 00:53:15;;;;;;;16.88;13.93;;;18.20;99.90;;;;;;5031888;28;20386;-76
2023/08/27 00:55:41;;;;;;;24.35;21.95;;;18.10;99.90;;;;;;5048041;28;20017;-75
2023/08/27 00:58:06;;;;;;;26.02;22.95;;;18.20;99.90;;;;;;5051476;28;20492;-75
2023/08/27 01:00:32;;;;;;;15.50;12.90;;;18.20;99.90;;;;;;5047040;28;20017;-74
2023/08/27 01:02:58;;;;;;;11.93;9.68;;;18.20;99.90;;;;;;5021389;28;20036;-77
2023/08/27 01:05:25;;;;;;;11.52;7.57;;;18.20;99.90;;;;;;5040959;28;20029;-76
2023/08/27 01:08:30;;;;;;;9.55;6.85;;;18.20;99.90;;;;;;5042325;28;20021;-75
2023/08/27 01:11:02;;;;;;;9.45;5.28;;;18.20;99.90;;;;;;5027872;28;20148;-74
2023/08/27 01:13:35;;;;;;;8.23;5.72;;;18.20;99.90;;;;;;5035189;28;20132;-76
2023/08/27 01:16:02;;;;;;;6.30;5.03;;;18.20;99.90;;;;;;5038845;28;20025;-75
2023/08/27 01:18:30;;;;;;;8.82;5.63;;;18.20;99.90;;;;;;5036377;28;20017;-76
2023/08/27 01:20:56;;;;;;;8.95;5.45;;;18.20;99.90;;;;;;5049702;28;20426;-76
2023/08/27 01:23:24;;;;;;;10.70;5.53;;;18.10;99.90;;;;;;5031150;28;20014;-76
2023/08/27 01:25:52;;;;;;;7.57;4.78;;;18.00;99.90;;;;;;5043711;28;20029;-76
2023/08/27 01:28:33;;;;;;;15.80;6.38;;;18.10;99.90;;;;;;5037352;28;20028;-76
2023/08/27 01:31:08;;;;;;;8.52;5.57;;;18.10;99.90;;;;;;5037422;28;20541;-76
2023/08/27 01:33:36;;;;;;;7.10;5.53;;;18.10;99.90;;;;;;5041474;28;20408;-77
2023/08/27 01:36:02;;;;;;;9.20;5.43;;;18.10;99.90;;;;;;5031208;28;20052;-74
2023/08/27 01:38:29;;;;;;;11.27;5.45;;;18.10;99.90;;;;;;5041658;28;20028;-76
2023/08/27 01:40:54;;;;;;;12.85;5.57;;;18.20;99.90;;;;;;5021979;28;20391;-76
2023/08/27 01:43:20;;;;;;;9.18;5.07;;;18.20;99.90;;;;;;5041906;28;20037;-77
2023/08/27 01:45:46;;;;;;;7.15;5.68;;;18.10;99.90;;;;;;5029803;28;20041;-75
2023/08/27 01:48:11;;;;;;;8.57;5.15;;;18.10;99.90;;;;;;5021492;28;20112;-75
2023/08/27 01:50:37;;;;;;;8.68;5.32;;;18.00;99.90;;;;;;5030288;28;20017;-75
2023/08/27 01:53:03;;;;;;;8.45;5.32;;;18.00;99.90;;;;;;5031060;28;20382;-77
2023/08/27 01:55:29;;;;;;;9.25;5.38;;;18.00;99.90;;;;;;5030530;28;20490;-77
2023/08/27 01:57:54;;;;;;;9.73;4.97;;;17.90;99.90;;;;;;5031783;28;20394;-77
2023/08/27 02:00:20;;;;;;;7.90;4.97;;;17.90;99.90;;;;;;5031261;28;20033;-77
2023/08/27 02:02:46;;;;;;;9.35;4.90;;;17.90;99.90;;;;;;5031228;28;20074;-74
2023/08/27 02:05:12;;;;;;;9.95;5.63;;;17.90;99.90;;;;;;5026899;28;20028;-74
2023/08/27 02:07:39;;;;;;;13.75;5.43;;;17.90;99.90;;;;;;5031438;28;20026;-74
2023/08/27 02:10:06;;;;;;;7.55;4.97;;;17.90;99.90;;;;;;5030842;28;20018;-74
2023/08/27 02:12:31;;;;;;;6.20;4.82;;;17.90;99.90;;;;;;5031628;28;20378;-74
2023/08/27 02:14:57;;;;;;;11.23;5.32;;;17.90;99.90;;;;;;5030769;28;20022;-75
2023/08/27 02:17:23;;;;;;;10.00;5.85;;;17.80;99.90;;;;;;5029949;28;20029;-75
2023/08/27 02:19:48;;;;;;;8.55;5.70;;;17.80;99.90;;;;;;5031164;28;20092;-77
2023/08/27 02:22:14;;;;;;;6.93;5.95;;;17.80;99.90;;;;;;5031146;28;20029;-77
2023/08/27 02:24:39;;;;;;;10.07;5.97;;;17.80;99.90;;;;;;5030875;28;20029;-75
2023/08/27 02:27:05;;;;;;;7.32;5.20;;;17.70;99.90;;;;;;5030554;28;20067;-74
2023/08/27 02:29:31;;;;;;;8.50;5.13;;;17.80;99.90;;;;;;5030751;28;20029;-74
2023/08/27 02:31:56;;;;;;;11.00;6.07;;;17.70;99.90;;;;;;5030624;28;20037;-77
2023/08/27 02:34:22;;;;;;;7.22;5.35;;;17.70;99.90;;;;;;5030290;28;20040;-76
2023/08/27 02:36:48;;;;;;;9.85;6.15;;;17.70;99.90;;;;;;5030540;28;20046;-75
2023/08/27 02:39:13;;;;;;;7.82;5.05;;;17.70;99.90;;;;;;5030449;28;20021;-74
2023/08/27 02:41:39;;;;;;;8.93;5.72;;;17.70;99.90;;;;;;5030545;28;20029;-77
2023/08/27 02:44:05;;;;;;;8.15;5.07;;;17.70;99.90;;;;;;5028810;28;20033;-77
2023/08/27 02:46:30;;;;;;;10.90;5.57;;;17.70;99.90;;;;;;5030419;28;20030;-76
2023/08/27 02:48:56;;;;;;;8.25;5.20;;;17.70;99.90;;;;;;5030583;28;20029;-77
2023/08/27 02:51:21;;;;;;;7.20;4.65;;;17.70;99.90;;;;;;5030919;28;20025;-75
2023/08/27 02:53:51;;;;;;;5.85;5.30;;;17.70;99.90;;;;;;5030732;28;20037;-77
2023/08/27 02:56:19;;;;;;;6.47;4.10;;;17.70;99.90;;;;;;5030261;28;20082;-77
2023/08/27 02:58:48;;;;;;;5.60;4.70;;;17.70;99.90;;;;;;5029542;28;20025;-76
2023/08/27 03:01:20;;;;;;;9.23;4.75;;;17.70;99.90;;;;;;5029174;28;20018;-77
2023/08/27 03:03:49;;;;;;;7.20;4.60;;;17.70;99.90;;;;;;5030542;28;20105;-76
2023/08/27 03:06:15;;;;;;;6.82;4.25;;;17.80;99.90;;;;;;5030495;28;20402;-77
2023/08/27 03:08:41;;;;;;;8.10;4.93;;;17.80;99.90;;;;;;5030539;28;20028;-77
2023/08/27 03:11:07;;;;;;;7.72;4.70;;;17.80;99.90;;;;;;5030093;28;20381;-74
2023/08/27 03:13:33;;;;;;;7.47;5.15;;;17.80;99.90;;;;;;5030077;28;20041;-77
2023/08/27 03:15:58;;;;;;;7.30;5.30;;;17.80;99.90;;;;;;5028030;28;20026;-77
2023/08/27 03:18:24;;;;;;;7.00;4.90;;;17.70;99.90;;;;;;5037139;28;20026;-75
2023/08/27 03:20:51;;;;;;;7.70;4.93;;;17.80;99.90;;;;;;5036962;28;20056;-75
2023/08/27 03:23:17;;;;;;;7.38;5.90;;;17.80;99.90;;;;;;5041326;28;20021;-74
2023/08/27 03:25:43;;;;;;;7.28;5.18;;;17.80;99.90;;;;;;5031097;28;20024;-77
2023/08/27 03:28:09;;;;;;;8.38;5.53;;;17.90;99.90;;;;;;5022641;28;20022;-74
2023/08/27 03:30:34;;;;;;;7.30;5.30;;;17.90;99.90;;;;;;5029632;28;20431;-77
2023/08/27 03:33:00;;;;;;;6.38;4.85;;;17.90;99.90;;;;;;5035275;28;20066;-77
2023/08/27 03:35:26;;;;;;;6.40;4.70;;;17.90;99.90;;;;;;5042314;28;20120;-74
2023/08/27 03:37:51;;;;;;;6.30;5.38;;;17.90;99.90;;;;;;5028237;28;20045;-77
2023/08/27 03:40:17;;;;;;;7.45;4.28;;;17.90;99.90;;;;;;5029622;28;20025;-75
2023/08/27 03:42:42;;;;;;;6.32;5.18;;;18.00;99.90;;;;;;5029396;28;20025;-76
2023/08/27 03:45:09;;;;;;;6.90;5.60;;;17.90;99.90;;;;;;5028385;28;20044;-76
2023/08/27 03:47:34;;;;;;;7.60;4.72;;;17.90;99.90;;;;;;5029880;28;20064;-75
2023/08/27 03:50:00;;;;;;;8.13;4.88;;;17.90;99.90;;;;;;5029655;28;20077;-77
2023/08/27 03:52:26;;;;;;;6.07;5.22;;;17.90;99.90;;;;;;5030431;28;20097;-76
2023/08/27 03:54:51;;;;;;;7.15;5.82;;;17.90;99.90;;;;;;5028116;28;20028;-77
2023/08/27 03:57:17;;;;;;;6.50;5.25;;;17.90;99.90;;;;;;5029267;28;20021;-77
2023/08/27 03:59:42;;;;;;;5.90;5.30;;;17.90;99.90;;;;;;5028981;28;20381;-74
2023/08/27 04:02:08;;;;;;;7.65;6.00;;;17.90;99.90;;;;;;5029371;28;20014;-77
2023/08/27 04:04:34;;;;;;;6.65;5.55;;;17.90;99.90;;;;;;5028096;28;20074;-77
2023/08/27 04:07:00;;;;;;;7.97;5.65;;;17.90;99.90;;;;;;5030293;28;20478;-75
2023/08/27 04:09:26;;;;;;;6.47;4.68;;;17.90;99.90;;;;;;5030584;28;20029;-75
2023/08/27 04:11:52;;;;;;;10.95;6.20;;;17.90;99.90;;;;;;5027359;28;20024;-76
2023/08/27 04:14:17;;;;;;;9.55;5.75;;;17.90;99.90;;;;;;5034018;28;20022;-74
2023/08/27 04:16:43;;;;;;;7.93;5.53;;;18.00;99.90;;;;;;5026744;28;20029;-75
2023/08/27 04:19:09;;;;;;;7.35;5.38;;;17.90;99.90;;;;;;5032518;28;20488;-75
2023/08/27 04:21:34;;;;;;;10.07;6.43;;;17.90;99.90;;;;;;5031059;28;20017;-77
2023/08/27 04:24:00;;;;;;;9.88;6.63;;;17.90;99.90;;;;;;5034133;28;20146;-77
2023/08/27 04:26:25;;;;;;;8.88;7.07;;;17.90;99.90;;;;;;5051797;28;20036;-75
2023/08/27 04:28:51;;;;;;;12.02;7.20;;;17.90;99.90;;;;;;5039738;28;20022;-77
2023/08/27 04:31:17;;;;;;;5.75;4.70;;;17.90;99.90;;;;;;5031597;28;20017;-77
2023/08/27 04:33:43;;;;;;;8.63;6.15;;;17.90;99.90;;;;;;5040956;28;20056;-74
2023/08/27 04:36:09;;;;;;;6.47;5.82;;;17.90;99.90;;;;;;5036808;28;20056;-74
2023/08/27 04:38:34;;;;;;;7.45;5.65;;;17.90;99.90;;;;;;5034677;28;20029;-77
2023/08/27 04:41:00;;;;;;;8.00;6.50;;;17.80;99.90;;;;;;5031975;28;20024;-75
2023/08/27 04:43:26;;;;;;;11.40;6.18;;;17.80;99.90;;;;;;5034769;28;20059;-75
2023/08/27 04:45:53;;;;;;;6.95;5.57;;;17.80;99.90;;;;;;5026691;28;20037;-77
2023/08/27 04:48:18;;;;;;;6.00;5.40;;;17.80;99.90;;;;;;5030911;28;20022;-77
2023/08/27 04:50:46;;;;;;;8.50;5.53;;;17.80;99.90;;;;;;5033661;28;20527;-77
2023/08/27 04:53:12;;;;;;;9.20;5.68;;;17.80;99.90;;;;;;5033529;28;20018;-74
2023/08/27 04:55:38;;;;;;;8.10;6.18;;;17.80;99.90;;;;;;5032095;28;20022;-74
2023/08/27 04:58:04;;;;;;;7.78;6.38;;;17.80;99.90;;;;;;5031818;28;20022;-74
2023/08/27 05:00:31;;;;;;;7.32;6.20;;;17.90;99.90;;;;;;5037299;28;20029;-77
2023/08/27 05:02:57;;;;;;;10.85;7.03;;;17.90;99.90;;;;;;5031837;28;20418;-75
2023/08/27 05:05:22;;;;;;;10.95;6.75;;;18.00;99.90;;;;;;5031667;28;20154;-75
2023/08/27 05:07:48;;;;;;;8.30;6.00;;;18.10;99.90;;;;;;5031761;28;20037;-75
2023/08/27 05:10:14;;;;;;;9.35;6.57;;;18.10;99.90;;;;;;5031806;28;20036;-77
2023/08/27 05:12:39;;;;;;;7.72;6.53;;;18.20;99.90;;;;;;5031455;28;20013;-74
2023/08/27 05:15:06;;;;;;;8.95;6.70;;;18.30;99.90;;;;;;5031289;28;20106;-78
2023/08/27 05:17:32;;;;;;;10.95;7.28;;;18.40;99.90;;;;;;5031808;28;20026;-77
2023/08/27 05:19:57;;;;;;;11.18;6.00;;;18.40;99.90;;;;;;5030525;28;20014;-77
2023/08/27 05:22:23;;;;;;;12.00;7.00;;;18.50;99.90;;;;;;5031580;28;20482;-74
2023/08/27 05:24:49;;;;;;;8.15;6.90;;;18.60;99.90;;;;;;5032183;28;20017;-81
2023/08/27 05:27:15;;;;;;;10.20;7.03;;;18.70;99.90;;;;;;5031189;28;20043;-78
2023/08/27 05:29:40;;;;;;;9.77;6.53;;;18.70;99.90;;;;;;5034701;28;20035;-81
2023/08/27 05:32:06;;;;;;;9.38;7.38;;;18.80;99.90;;;;;;5039495;28;20104;-81
2023/08/27 05:34:32;;;;;;;10.10;7.72;;;18.80;99.90;;;;;;5036485;28;20026;-75
2023/08/27 05:36:58;;;;;;;9.77;6.63;;;18.90;99.90;;;;;;5032586;28;20136;-79
2023/08/27 05:39:24;;;;;;;10.45;7.80;;;19.00;99.90;;;;;;5025484;28;20033;-75
2023/08/27 05:41:50;;;;;;;10.15;6.70;;;19.10;99.90;;;;;;5029896;28;20486;-79
2023/08/27 05:44:16;;;;;;;11.85;7.88;;;19.20;99.90;;;;;;5031062;28;20017;-78
2023/08/27 05:46:41;;;;;;;8.00;6.80;;;19.30;99.90;;;;;;5041176;28;20029;-78
2023/08/27 05:49:07;;;;;;;10.60;7.15;;;19.30;99.90;;;;;;5044514;28;20028;-79
2023/08/27 05:51:32;;;;;;;8.93;6.47;;;19.40;99.90;;;;;;5021539;28;20045;-78
2023/08/27 05:53:58;;;;;;;12.23;7.82;;;19.40;99.90;;;;;;5027851;28;20056;-78
2023/08/27 05:56:26;;;;;;;13.65;7.20;;;19.50;99.90;;;;;;5045940;28;20017;-78
2023/08/27 05:58:52;;;;;;;10.02;7.07;;;19.60;99.90;;;;;;5035646;28;20022;-81
2023/08/27 06:01:17;;;;;;;15.80;8.00;;;19.70;99.90;;;;;;5027508;28;20030;-75
2023/08/27 06:03:43;;;;;;;11.27;7.68;;;19.90;99.90;;;;;;5035339;28;20029;-76
2023/08/27 06:06:09;;;;;;;10.63;7.45;;;19.90;99.90;;;;;;5035322;28;20029;-76
2023/08/27 06:08:34;;;;;;;9.35;7.22;;;20.00;99.90;;;;;;5025869;28;20116;-76
2023/08/27 06:11:01;;;;;;;11.20;7.05;;;20.10;99.90;;;;;;5027364;28;20072;-75
2023/08/27 06:13:27;;;;;;;11.20;7.78;;;20.20;99.90;;;;;;5031496;28;20025;-75
2023/08/27 06:15:53;;;;;;;14.02;8.95;;;20.30;99.90;;;;;;5028313;28;20535;-75
2023/08/27 06:18:18;;;;;;;13.20;7.88;;;20.40;99.90;;;;;;5032753;28;20034;-75
2023/08/27 06:20:44;;;;;;;14.25;9.05;;;20.30;99.90;;;;;;5044436;28;20478;-79
2023/08/27 06:23:10;;;;;;;20.92;10.20;;;20.30;99.90;;;;;;5028618;28;20018;-79
2023/08/27 06:25:36;;;;;;;12.98;9.85;;;20.30;99.90;;;;;;5028355;28;20029;-75
2023/08/27 06:28:05;;;;;;;18.10;12.10;;;20.40;99.90;;;;;;5032601;28;20367;-76
2023/08/27 06:30:31;;;;;;;18.52;9.80;;;20.50;99.90;;;;;;5040423;28;20070;-76
2023/08/27 06:32:57;;;;;;;17.17;11.52;;;20.60;99.90;;;;;;5029560;28;20105;-79
2023/08/27 06:35:23;;;;;;;22.42;12.88;;;20.60;99.90;;;;;;5029304;28;20386;-75
2023/08/27 06:37:49;;;;;;;21.13;11.50;;;20.80;99.90;;;;;;5041145;28;20489;-75
2023/08/27 06:40:15;;;;;;;24.33;14.25;;;20.80;99.90;;;;;;5032304;28;20032;-76
2023/08/27 06:42:41;;;;;;;20.08;14.35;;;20.80;99.90;;;;;;5026169;28;20013;-79
2023/08/27 06:45:07;;;;;;;23.75;15.80;;;20.70;99.90;;;;;;5038745;28;20021;-76
2023/08/27 06:47:33;;;;;;;23.65;16.08;;;20.70;99.90;;;;;;5015880;28;20517;-75
2023/08/27 06:49:59;;;;;;;21.95;14.32;;;20.70;99.90;;;;;;5030357;28;20025;-77
2023/08/27 06:52:25;;;;;;;23.10;15.95;;;20.80;99.90;;;;;;5033653;28;20116;-79
2023/08/27 06:54:51;;;;;;;25.05;16.02;;;20.80;99.90;;;;;;5026600;28;20035;-79
2023/08/27 06:57:16;;;;;;;24.75;15.43;;;20.80;99.90;;;;;;5046371;28;20029;-78
2023/08/27 06:59:42;;;;;;;22.38;14.27;;;20.80;99.90;;;;;;5037548;28;20026;-75
2023/08/27 07:02:08;;;;;;;24.40;15.13;;;20.80;99.90;;;;;;5040584;28;20024;-75
2023/08/27 07:04:33;;;;;;;22.85;14.52;;;20.90;99.90;;;;;;5028499;28;20025;-79
2023/08/27 07:06:59;;;;;;;25.33;16.60;;;21.10;99.90;;;;;;5037976;28;20052;-79
2023/08/27 07:09:25;;;;;;;16.88;12.05;;;21.20;99.90;;;;;;5030750;28;20066;-78
2023/08/27 07:11:51;;;;;;;19.45;13.70;;;21.20;99.90;;;;;;5031726;28;20018;-79
2023/08/27 07:14:17;;;;;;;17.95;11.80;;;21.30;99.90;;;;;;5029697;28;20531;-79
2023/08/27 07:16:43;;;;;;;14.93;10.80;;;21.30;99.90;;;;;;5037242;28;20021;-79
2023/08/27 07:19:09;;;;;;;16.52;10.90;;;21.40;99.90;;;;;;5030388;28;20064;-78
2023/08/27 07:21:34;;;;;;;15.90;10.13;;;21.50;99.90;;;;;;5029875;28;20026;-79
2023/08/27 07:24:00;;;;;;;12.85;8.35;;;21.60;99.90;;;;;;5028948;28;20018;-76
2023/08/27 07:26:25;;;;;;;12.23;8.45;;;21.60;99.90;;;;;;5033609;28;20439;-78
2023/08/27 07:28:51;;;;;;;9.38;7.88;;;21.60;99.90;;;;;;5028303;28;20505;-78
2023/08/27 07:31:17;;;;;;;10.68;8.82;;;21.70;99.90;;;;;;5032466;28;20082;-76
2023/08/27 07:33:42;;;;;;;11.13;7.43;;;21.60;99.90;;;;;;5034197;28;20021;-78
2023/08/27 07:36:08;;;;;;;9.18;7.65;;;21.60;99.90;;;;;;5033805;28;20124;-76
2023/08/27 07:38:42;;;;;;;13.30;8.80;;;21.70;99.90;;;;;;5032568;28;20017;-78
2023/08/27 07:41:09;;;;;;;13.35;10.13;;;21.70;99.90;;;;;;5030454;28;20466;-76
2023/08/27 07:43:35;;;;;;;10.00;9.02;;;21.60;99.90;;;;;;5040619;28;20096;-77
2023/08/27 07:46:00;;;;;;;10.23;8.02;;;21.80;99.90;;;;;;5033223;28;20557;-76
2023/08/27 07:48:27;;;;;;;9.32;8.20;;;21.80;99.90;;;;;;5026640;28;20036;-77
2023/08/27 07:50:53;;;;;;;9.77;8.02;;;21.90;99.90;;;;;;5028209;28;20051;-76
2023/08/27 07:53:19;;;;;;;8.52;7.55;;;22.00;99.90;;;;;;5028879;28;20029;-76
2023/08/27 07:55:45;;;;;;;9.63;8.63;;;22.10;99.90;;;;;;5029660;28;20025;-76
2023/08/27 07:58:11;;;;;;;9.80;7.95;;;22.10;99.90;;;;;;5036234;28;20033;-76
2023/08/27 08:00:36;;;;;;;9.88;8.88;;;22.20;99.90;;;;;;5035972;28;20120;-78
2023/08/27 08:03:02;;;;;;;9.05;8.25;;;22.20;99.90;;;;;;5034834;28;20021;-76
2023/08/27 08:05:28;;;;;;;9.43;8.57;;;22.30;99.90;;;;;;5032245;28;20021;-76
2023/08/27 08:07:54;;;;;;;9.63;8.48;;;22.30;99.90;;;;;;5026579;28;20037;-79
2023/08/27 08:10:20;;;;;;;9.45;8.45;;;22.40;99.90;;;;;;5050114;28;20033;-78
2023/08/27 08:12:46;;;;;;;9.70;8.80;;;22.40;99.90;;;;;;5044629;28;20565;-76
2023/08/27 08:15:12;;;;;;;11.38;8.80;;;22.50;99.90;;;;;;5046453;28;20113;-76
2023/08/27 08:17:38;;;;;;;11.52;8.73;;;22.50;99.90;;;;;;5040375;28;20488;-76
2023/08/27 08:20:05;;;;;;;10.93;9.82;;;22.40;99.90;;;;;;5044847;28;20021;-76
2023/08/27 08:22:30;;;;;;;12.23;9.82;;;22.50;99.90;;;;;;5030042;28;20025;-76
2023/08/27 08:24:56;;;;;;;13.00;9.20;;;22.60;99.90;;;;;;5036921;28;20434;-76
2023/08/27 08:27:22;;;;;;;11.85;9.13;;;22.70;99.90;;;;;;5039981;28;20037;-76
2023/08/27 08:29:49;;;;;;;10.70;9.13;;;22.80;99.90;;;;;;5035535;28;20032;-76
2023/08/27 08:32:15;;;;;;;10.85;8.73;;;22.80;99.90;;;;;;5029385;28;20030;-78
2023/08/27 08:34:41;;;;;;;9.57;8.65;;;22.90;99.90;;;;;;5031327;28;20485;-77
2023/08/27 08:37:07;;;;;;;10.63;9.52;;;22.80;99.90;;;;;;5024552;28;20138;-78
2023/08/27 08:39:34;;;;;;;10.63;8.88;;;23.00;99.90;;;;;;5030670;28;20135;-81
2023/08/27 08:42:04;;;;;;;9.68;8.35;;;23.10;99.90;;;;;;5023309;28;20034;-81
2023/08/27 08:44:41;;;;;;;11.70;10.50;;;23.10;99.90;;;;;;5034636;28;20466;-81
2023/08/27 08:47:11;;;;;;;10.10;8.52;;;23.30;99.90;;;;;;5024590;28;20128;-81
2023/08/27 08:49:40;;;;;;;12.18;10.27;;;23.30;99.90;;;;;;5036318;28;20040;-80
2023/08/27 08:52:09;;;;;;;10.13;9.15;;;23.40;99.90;;;;;;5030006;28;20026;-81
2023/08/27 08:54:38;;;;;;;9.35;8.43;;;23.40;99.90;;;;;;5029407;28;20025;-81
2023/08/27 08:57:05;;;;;;;9.93;9.02;;;23.40;99.90;;;;;;5031142;28;20072;-81
2023/08/27 08:59:32;;;;;;;9.90;8.88;;;23.50;99.90;;;;;;5025181;28;20026;-81
2023/08/27 09:01:59;;;;;;;10.48;8.55;;;23.70;99.90;;;;;;5032198;28;20401;-80
2023/08/27 09:04:26;;;;;;;9.45;8.45;;;23.80;99.90;;;;;;5039520;28;20095;-80
2023/08/27 09:06:53;;;;;;;9.35;8.45;;;23.80;99.90;;;;;;5027496;28;20048;-81
2023/08/27 09:09:21;;;;;;;8.93;8.07;;;23.60;99.90;;;;;;5029352;28;20025;-80
2023/08/27 09:11:49;;;;;;;9.32;8.43;;;23.50;99.90;;;;;;5035106;28;20497;-81
2023/08/27 09:14:16;;;;;;;10.50;9.50;;;23.30;99.90;;;;;;5029300;28;20018;-80
2023/08/27 09:16:41;;;;;;;10.93;9.55;;;23.40;99.90;;;;;;5039041;28;20053;-81
2023/08/27 09:19:07;;;;;;;8.90;8.10;;;23.40;99.90;;;;;;5028191;28;20056;-81
2023/08/27 09:21:34;;;;;;;11.18;8.43;;;23.50;99.90;;;;;;5039562;28;20022;-80
2023/08/27 09:24:00;;;;;;;10.65;9.55;;;23.40;99.90;;;;;;5026189;28;20037;-81
2023/08/27 09:26:25;;;;;;;9.80;8.77;;;23.80;99.90;;;;;;5033860;28;20170;-81
2023/08/27 09:28:52;;;;;;;10.25;9.00;;;24.00;99.90;;;;;;5046124;28;20032;-80
2023/08/27 09:31:55;;;;;;;10.70;9.02;;;24.00;99.90;;;;;;5035512;28;20112;-78
2023/08/27 09:34:20;;;;;;;10.70;9.43;;;24.20;99.90;;;;;;5035792;28;20036;-79
2023/08/27 09:36:46;;;;;;;9.30;8.40;;;24.20;99.90;;;;;;5026315;28;20049;-79
2023/08/27 09:39:12;;;;;;;8.63;7.82;;;24.30;99.90;;;;;;5030194;28;20104;-79
2023/08/27 09:41:40;;;;;;;11.05;8.15;;;24.50;99.90;;;;;;5029940;28;20036;-79
2023/08/27 09:44:06;;;;;;;9.63;8.73;;;24.70;99.90;;;;;;5033139;28;20457;-78
2023/08/27 09:46:32;;;;;;;9.15;8.13;;;24.70;99.90;;;;;;5025078;28;20046;-78
2023/08/27 09:49:00;;;;;;;9.00;7.95;;;24.80;99.90;;;;;;5030055;28;20033;-79
2023/08/27 09:51:29;;;;;;;8.10;7.40;;;25.00;99.90;;;;;;5035652;28;20077;-78
2023/08/27 09:53:55;;;;;;;9.38;8.45;;;25.30;99.90;;;;;;5039857;28;20109;-82
2023/08/27 09:56:28;;;;;;;8.73;7.93;;;25.20;99.90;;;;;;5029343;28;20033;-80
2023/08/27 09:58:54;;;;;;;;;;;25.10;99.90;;;;;;5034828;28;20062;-81
2023/08/27 10:01:21;;;;;;;11.77;9.25;;;25.00;99.90;;;;;;5036064;28;20013;-78
2023/08/27 10:03:47;;;;;;;12.93;10.95;;;24.90;99.90;;;;;;5038482;28;20025;-81
2023/08/27 10:06:13;;;;;;;11.32;9.20;;;24.70;99.90;;;;;;5038066;28;20044;-81
2023/08/27 10:08:50;;;;;;;11.00;9.88;;;24.90;99.90;;;;;;5028398;28;20026;-80
2023/08/27 10:11:17;;;;;;;12.18;11.07;;;25.00;99.90;;;;;;5027640;28;20542;-78
2023/08/27 10:13:44;;;;;;;11.68;10.57;;;25.00;99.90;;;;;;5029093;28;20509;-81
2023/08/27 10:16:12;;;;;;;11.93;10.93;;;25.10;99.90;;;;;;5030250;28;20066;-78
2023/08/27 10:18:39;;;;;;;11.48;10.30;;;25.00;99.90;;;;;;5052997;28;20389;-80
2023/08/27 10:21:07;;;;;;;11.52;10.45;;;25.00;99.90;;;;;;5036082;28;20428;-78
2023/08/27 10:23:33;;;;;;;13.55;12.25;;;24.80;99.90;;;;;;5030664;28;20034;-78
2023/08/27 10:26:00;;;;;;;14.15;12.73;;;24.70;99.90;;;;;;5028876;28;20121;-80
2023/08/27 10:28:27;;;;;;;13.60;12.20;;;24.60;99.90;;;;;;5029225;28;20026;-80
2023/08/27 10:30:53;;;;;;;14.40;13.00;;;24.60;99.90;;;;;;5037028;28;20028;-78
2023/08/27 10:33:18;;;;;;;15.55;13.98;;;24.70;99.90;;;;;;5017536;28;20025;-78
2023/08/27 10:35:47;;;;;;;14.73;13.32;;;24.80;99.90;;;;;;5029686;28;20070;-78
2023/08/27 10:38:15;;;;;;;16.55;13.82;;;24.80;99.90;;;;;;5025046;28;20029;-78
2023/08/27 10:40:44;;;;;;;15.35;13.85;;;24.80;99.90;;;;;;5026623;28;20033;-78
2023/08/27 10:43:19;;;;;;;17.60;15.80;;;24.80;99.90;;;;;;5042203;28;20024;-78
2023/08/27 10:45:47;;;;;;;17.23;15.48;;;24.80;99.90;;;;;;5044094;28;20071;-82
2023/08/27 10:48:23;;;;;;;15.93;14.40;;;24.90;99.90;;;;;;5029297;28;20029;-78
2023/08/27 10:51:11;;;;;;;15.57;14.07;;;24.80;99.90;;;;;;5034416;28;20028;-77
2023/08/27 10:53:49;;;;;;;16.75;14.95;;;24.70;99.90;;;;;;5033991;28;20034;-80
2023/08/27 10:56:36;;;;;;;16.67;15.10;;;24.40;99.90;;;;;;5038962;28;20069;-80
2023/08/27 10:59:09;;;;;;;16.35;14.75;;;24.40;99.90;;;;;;5023314;28;20051;-77
2023/08/27 11:01:37;;;;;;;15.55;14.10;;;24.40;99.90;;;;;;5036529;28;20014;-77
2023/08/27 11:04:07;;;;;;;15.00;13.50;;;24.50;99.90;;;;;;5016891;28;20018;-77
2023/08/27 11:06:40;;;;;;;14.93;13.43;;;24.80;99.90;;;;;;5028562;28;20033;-77
2023/08/27 11:09:23;;;;;;;15.35;13.82;;;24.90;99.90;;;;;;5019980;28;20049;-76
2023/08/27 11:12:00;;;;;;;16.10;12.80;;;24.90;99.90;;;;;;5042710;28;20381;-76
2023/08/27 11:14:26;;;;;;;15.23;13.63;;;25.00;99.90;;;;;;5033684;28;20033;-77
2023/08/27 11:16:59;;;;;;;17.10;15.50;;;25.00;99.90;;;;;;5036097;28;20024;-79
2023/08/27 11:19:36;;;;;;;15.20;13.65;;;25.00;99.90;;;;;;5024431;28;20026;-77
2023/08/27 11:22:05;;;;;;;16.60;14.32;;;25.00;99.90;;;;;;5029596;28;20437;-80
2023/08/27 11:24:31;;;;;;;13.80;12.40;;;24.90;99.90;;;;;;5029605;28;20061;-80
2023/08/27 11:27:00;;;;;;;13.75;12.30;;;25.00;99.90;;;;;;5026891;28;20514;-80
2023/08/27 11:29:27;;;;;;;14.98;13.38;;;25.10;99.90;;;;;;5015433;28;20026;-80
2023/08/27 11:31:53;;;;;;;15.30;13.70;;;25.00;99.90;;;;;;5016925;28;20047;-80
2023/08/27 11:34:19;;;;;;;13.98;12.45;;;25.20;99.90;;;;;;5021235;28;20021;-80
2023/08/27 11:36:54;;;;;;;13.52;12.13;;;25.30;99.90;;;;;;5026728;28;20518;-80
2023/08/27 11:39:20;;;;;;;16.70;13.93;;;25.40;99.90;;;;;;5024389;28;20121;-80
2023/08/27 11:41:46;;;;;;;14.95;13.18;;;25.40;99.90;;;;;;5028110;28;20032;-80
2023/08/27 11:44:12;;;;;;;15.35;13.70;;;25.50;99.90;;;;;;5022938;28;20147;-77
2023/08/27 11:46:40;;;;;;;16.20;14.60;;;25.40;99.90;;;;;;5040268;28;20072;-77
2023/08/27 11:49:06;;;;;;;16.25;14.32;;;25.20;99.90;;;;;;5024224;28;20028;-77
2023/08/27 11:51:33;;;;;;;17.25;15.45;;;25.10;99.90;;;;;;5034380;28;20022;-76
2023/08/27 11:53:58;;;;;;;18.42;16.52;;;25.30;99.90;;;;;;5020861;28;20025;-76
2023/08/27 11:56:26;;;;;;;19.67;17.55;;;25.20;99.90;;;;;;5032799;28;20048;-80
2023/08/27 11:58:54;;;;;;;19.73;15.18;;;25.30;99.90;;;;;;5032752;28;20017;-80
2023/08/27 12:01:21;;;;;;;16.77;15.05;;;25.30;99.90;;;;;;5032836;28;20116;-80
2023/08/27 12:03:51;;;;;;;16.65;14.95;;;25.20;99.90;;;;;;5022068;28;20026;-80
2023/08/27 12:06:26;;;;;;;17.33;15.15;;;25.40;99.90;;;;;;5018178;28;20057;-80
2023/08/27 12:08:56;;;;;;;17.30;15.50;;;25.30;99.90;;;;;;5010378;28;20479;-80
2023/08/27 12:11:27;;;;;;;17.83;15.88;;;25.50;99.90;;;;;;5020395;28;20173;-80
2023/08/27 12:14:00;;;;;;;16.83;15.02;;;25.50;99.90;;;;;;5018792;28;20592;-80
2023/08/27 12:16:32;;;;;;;20.85;16.88;;;25.70;99.90;;;;;;5029178;28;20447;-80
2023/08/27 12:19:03;;;;;;;;;;;25.80;99.90;;;;;;5016585;28;20022;-80
2023/08/27 12:21:46;;;;;;;16.10;14.15;;;25.70;99.90;;;;;;5039307;28;19908;-80
2023/08/27 12:24:33;;;;;;;18.25;15.57;;;25.80;99.90;;;;;;5027919;28;20029;-80
2023/08/27 12:27:02;;;;;;;17.55;15.73;;;25.90;99.90;;;;;;5031729;28;20030;-80
2023/08/27 12:29:34;;;;;;;16.73;15.02;;;26.00;98.80;;;;;;5024595;28;20427;-80
2023/08/27 12:32:18;;;;;;;18.38;16.38;;;26.20;99.90;;;;;;5028784;28;20021;-76
2023/08/27 12:34:44;;;;;;;17.77;14.82;;;26.60;99.90;;;;;;5029792;28;20022;-80
2023/08/27 12:37:11;;;;;;;17.60;15.80;;;26.70;98.10;;;;;;5034991;28;20409;-80
2023/08/27 12:39:38;;;;;;;16.80;14.80;;;26.90;95.60;;;;;;5030864;28;20030;-76